sensor_id;sensor_type;location;lat;lon;timestamp;pressure;altitude;pressure_sealevel;temperature;humidity
61037;BME280;72210;47.076;15.430;2024-01-30T00:01:59;99130.81;;;-2.75;100.00
61037;BME280;72210;47.076;15.430;2024-01-30T00:04:26;99137.56;;;-2.77;100.00
61037;BME280;72210;47.076;15.430;2024-01-30T00:06:54;99135.00;;;-2.79;100.00
61037;BME280;72210;47.076;15.430;2024-01-30T00:09:21;99132.47;;;-2.77;100.00
61037;BME280;72210;47.076;15.430;2024-01-30T00:11:49;99135.06;;;-2.76;100.00
61037;BME280;72210;47.076;15.430;2024-01-30T00:14:16;99129.94;;;-2.77;100.00
61037;BME280;72210;47.076;15.430;2024-01-30T00:16:45;99128.19;;;-2.78;100.00
61037;BME280;72210;47.076;15.430;2024-01-30T00:19:12;99116.22;;;-2.82;100.00
61037;BME280;72210;47.076;15.430;2024-01-30T00:21:39;99127.31;;;-2.80;100.00
61037;BME280;72210;47.076;15.430;2024-01-30T00:24:06;99121.34;;;-2.81;100.00
61037;BME280;72210;47.076;15.430;2024-01-30T00:26:34;99131.59;;;-2.79;100.00
61037;BME280;72210;47.076;15.430;2024-01-30T00:29:03;99128.13;;;-2.81;100.00
61037;BME280;72210;47.076;15.430;2024-01-30T00:31:30;99134.06;;;-2.82;100.00
61037;BME280;72210;47.076;15.430;2024-01-30T00:34:00;99127.25;;;-2.83;100.00
61037;BME280;72210;47.076;15.430;2024-01-30T00:36:27;99134.97;;;-2.80;100.00
61037;BME280;72210;47.076;15.430;2024-01-30T00:38:55;99134.13;;;-2.81;100.00
61037;BME280;72210;47.076;15.430;2024-01-30T00:41:22;99135.78;;;-2.81;100.00
61037;BME280;72210;47.076;15.430;2024-01-30T00:43:49;99137.47;;;-2.82;100.00
61037;BME280;72210;47.076;15.430;2024-01-30T00:46:17;99146.00;;;-2.80;100.00
61037;BME280;72210;47.076;15.430;2024-01-30T00:48:45;99138.38;;;-2.80;100.00
61037;BME280;72210;47.076;15.430;2024-01-30T00:51:14;99135.03;;;-2.77;100.00
61037;BME280;72210;47.076;15.430;2024-01-30T00:53:41;99135.88;;;-2.77;100.00
61037;BME280;72210;47.076;15.430;2024-01-30T00:56:08;99129.22;;;-2.72;100.00
61037;BME280;72210;47.076;15.430;2024-01-30T00:58:36;99128.34;;;-2.72;100.00
61037;BME280;72210;47.076;15.430;2024-01-30T01:01:03;99133.50;;;-2.69;100.00
61037;BME280;72210;47.076;15.430;2024-01-30T01:03:31;99130.97;;;-2.67;100.00
61037;BME280;72210;47.076;15.430;2024-01-30T01:05:58;99131.88;;;-2.67;100.00
61037;BME280;72210;47.076;15.430;2024-01-30T01:08:27;99124.97;;;-2.71;100.00
61037;BME280;72210;47.076;15.430;2024-01-30T01:10:55;99118.09;;;-2.74;100.00
61037;BME280;72210;47.076;15.430;2024-01-30T01:13:22;99121.44;;;-2.78;100.00
61037;BME280;72210;47.076;15.430;2024-01-30T01:15:49;99128.13;;;-2.81;100.00
61037;BME280;72210;47.076;15.430;2024-01-30T01:18:17;99129.75;;;-2.85;100.00
61037;BME280;72210;47.076;15.430;2024-01-30T01:20:44;99131.38;;;-2.89;100.00
61037;BME280;72210;47.076;15.430;2024-01-30T01:23:11;99125.34;;;-2.92;100.00
61037;BME280;72210;47.076;15.430;2024-01-30T01:25:40;99120.16;;;-2.95;100.00
61037;BME280;72210;47.076;15.430;2024-01-30T01:28:08;99115.00;;;-2.98;100.00
61037;BME280;72210;47.076;15.430;2024-01-30T01:30:35;99115.81;;;-3.01;100.00
61037;BME280;72210;47.076;15.430;2024-01-30T01:33:02;99120.84;;;-3.04;100.00
61037;BME280;72210;47.076;15.430;2024-01-30T01:35:30;99115.72;;;-3.05;100.00
61037;BME280;72210;47.076;15.430;2024-01-30T01:37:57;99102.00;;;-3.11;100.00
61037;BME280;72210;47.076;15.430;2024-01-30T01:40:24;99121.47;;;-3.13;100.00
61037;BME280;72210;47.076;15.430;2024-01-30T01:42:55;99111.19;;;-3.17;100.00
61037;BME280;72210;47.076;15.430;2024-01-30T01:45:23;99108.56;;;-3.20;100.00
61037;BME280;72210;47.076;15.430;2024-01-30T01:47:51;99111.06;;;-3.22;100.00
61037;BME280;72210;47.076;15.430;2024-01-30T01:50:21;99110.13;;;-3.27;100.00
61037;BME280;72210;47.076;15.430;2024-01-30T01:52:50;99110.88;;;-3.30;100.00
61037;BME280;72210;47.076;15.430;2024-01-30T01:55:21;99112.63;;;-3.29;100.00
61037;BME280;72210;47.076;15.430;2024-01-30T01:57:49;99113.47;;;-3.28;100.00
61037;BME280;72210;47.076;15.430;2024-01-30T02:00:18;99111.81;;;-3.28;100.00
61037;BME280;72210;47.076;15.430;2024-01-30T02:02:46;99111.00;;;-3.25;100.00
61037;BME280;72210;47.076;15.430;2024-01-30T02:05:14;99112.00;;;-3.20;100.00
61037;BME280;72210;47.076;15.430;2024-01-30T02:07:43;99105.22;;;-3.18;100.00
61037;BME280;72210;47.076;15.430;2024-01-30T02:10:12;99106.16;;;-3.14;100.00
61037;BME280;72210;47.076;15.430;2024-01-30T02:12:40;99105.38;;;-3.12;100.00
61037;BME280;72210;47.076;15.430;2024-01-30T02:15:07;99106.19;;;-3.13;100.00
61037;BME280;72210;47.076;15.430;2024-01-30T02:17:36;99104.41;;;-3.17;100.00
61037;BME280;72210;47.076;15.430;2024-01-30T02:20:04;99106.09;;;-3.17;100.00
61037;BME280;72210;47.076;15.430;2024-01-30T02:26:01;99106.94;;;-3.18;100.00
61037;BME280;72210;47.076;15.430;2024-01-30T02:28:29;99103.47;;;-3.20;100.00
61037;BME280;72210;47.076;15.430;2024-01-30T02:30:56;99108.53;;;-3.22;100.00
61037;BME280;72210;47.076;15.430;2024-01-30T02:33:26;99096.66;;;-3.21;100.00
61037;BME280;72210;47.076;15.430;2024-01-30T02:35:54;99106.78;;;-3.25;100.00
61037;BME280;72210;47.076;15.430;2024-01-30T02:38:21;99107.59;;;-3.26;100.00
61037;BME280;72210;47.076;15.430;2024-01-30T02:40:48;99099.06;;;-3.28;100.00
61037;BME280;72210;47.076;15.430;2024-01-30T02:43:17;99099.13;;;-3.25;100.00
61037;BME280;72210;47.076;15.430;2024-01-30T02:45:44;99097.56;;;-3.19;100.00
61037;BME280;72210;47.076;15.430;2024-01-30T02:48:12;99098.44;;;-3.17;100.00
61037;BME280;72210;47.076;15.430;2024-01-30T02:50:40;99107.00;;;-3.15;100.00
61037;BME280;72210;47.076;15.430;2024-01-30T02:53:07;99114.59;;;-3.17;100.00
61037;BME280;72210;47.076;15.430;2024-01-30T02:55:34;99098.50;;;-3.14;100.00
61037;BME280;72210;47.076;15.430;2024-01-30T02:58:02;99104.56;;;-3.11;100.00
61037;BME280;72210;47.076;15.430;2024-01-30T03:00:30;99102.81;;;-3.12;100.00
61037;BME280;72210;47.076;15.430;2024-01-30T03:02:58;99097.78;;;-3.09;100.00
61037;BME280;72210;47.076;15.430;2024-01-30T03:05:25;99096.94;;;-3.09;100.00
61037;BME280;72210;47.076;15.430;2024-01-30T03:07:53;99092.59;;;-3.13;100.00
61037;BME280;72210;47.076;15.430;2024-01-30T03:10:20;99093.41;;;-3.14;100.00
61037;BME280;72210;47.076;15.430;2024-01-30T03:12:48;99095.84;;;-3.19;100.00
61037;BME280;72210;47.076;15.430;2024-01-30T03:15:15;99098.28;;;-3.23;100.00
61037;BME280;72210;47.076;15.430;2024-01-30T03:17:44;99092.31;;;-3.26;100.00
61037;BME280;72210;47.076;15.430;2024-01-30T03:20:11;99093.13;;;-3.27;100.00
61037;BME280;72210;47.076;15.430;2024-01-30T03:22:41;99093.09;;;-3.28;100.00
61037;BME280;72210;47.076;15.430;2024-01-30T03:25:09;99093.09;;;-3.28;100.00
61037;BME280;72210;47.076;15.430;2024-01-30T03:27:36;99092.19;;;-3.30;100.00
61037;BME280;72210;47.076;15.430;2024-01-30T03:30:07;99092.91;;;-3.36;100.00
61037;BME280;72210;47.076;15.430;2024-01-30T03:32:35;99091.09;;;-3.41;100.00
61037;BME280;72210;47.076;15.430;2024-01-30T03:35:05;99088.50;;;-3.43;100.00
61037;BME280;72210;47.076;15.430;2024-01-30T03:37:32;99082.47;;;-3.47;100.00
61037;BME280;72210;47.076;15.430;2024-01-30T03:40:00;99092.69;;;-3.45;100.00
61037;BME280;72210;47.076;15.430;2024-01-30T03:42:28;99084.03;;;-3.52;100.00
61037;BME280;72210;47.076;15.430;2024-01-30T03:44:56;99090.63;;;-3.62;100.00
61037;BME280;72210;47.076;15.430;2024-01-30T03:47:24;99087.03;;;-3.68;100.00
61037;BME280;72210;47.076;15.430;2024-01-30T03:49:51;99099.59;;;-3.74;100.00
61037;BME280;72210;47.076;15.430;2024-01-30T03:52:20;99092.78;;;-3.77;100.00
61037;BME280;72210;47.076;15.430;2024-01-30T03:54:48;99096.81;;;-3.85;100.00
61037;BME280;72210;47.076;15.430;2024-01-30T03:57:15;99103.38;;;-3.93;100.00
61037;BME280;72210;47.076;15.430;2024-01-30T03:59:43;99099.81;;;-4.00;100.00
61037;BME280;72210;47.076;15.430;2024-01-30T04:02:11;99098.03;;;-4.03;100.00
61037;BME280;72210;47.076;15.430;2024-01-30T04:04:39;99097.09;;;-4.06;100.00
61037;BME280;72210;47.076;15.430;2024-01-30T04:07:07;99095.25;;;-4.12;100.00
61037;BME280;72210;47.076;15.430;2024-01-30T04:09:38;99095.09;;;-4.18;100.00
61037;BME280;72210;47.076;15.430;2024-01-30T04:12:06;99101.88;;;-4.19;100.00
61037;BME280;72210;47.076;15.430;2024-01-30T04:14:33;99101.88;;;-4.19;100.00
61037;BME280;72210;47.076;15.430;2024-01-30T04:17:00;99105.22;;;-4.20;100.00
61037;BME280;72210;47.076;15.430;2024-01-30T04:19:28;99115.41;;;-4.20;100.00
61037;BME280;72210;47.076;15.430;2024-01-30T04:21:56;99095.81;;;-4.24;100.00
61037;BME280;72210;47.076;15.430;2024-01-30T04:24:24;99101.78;;;-4.22;100.00
61037;BME280;72210;47.076;15.430;2024-01-30T04:26:53;99106.88;;;-4.22;100.00
61037;BME280;72210;47.076;15.430;2024-01-30T04:29:21;99101.06;;;-4.18;100.00
61037;BME280;72210;47.076;15.430;2024-01-30T04:31:48;99102.69;;;-4.20;100.00
61037;BME280;72210;47.076;15.430;2024-01-30T04:34:16;99112.03;;;-4.19;100.00
61037;BME280;72210;47.076;15.430;2024-01-30T04:36:44;99104.47;;;-4.17;100.00
61037;BME280;72210;47.076;15.430;2024-01-30T04:39:11;99104.53;;;-4.14;100.00
61037;BME280;72210;47.076;15.430;2024-01-30T04:41:39;99098.56;;;-4.16;100.00
61037;BME280;72210;47.076;15.430;2024-01-30T04:44:08;99101.88;;;-4.19;100.00
61037;BME280;72210;47.076;15.430;2024-01-30T04:46:35;99100.09;;;-4.21;100.00
61037;BME280;72210;47.076;15.430;2024-01-30T04:49:02;99094.88;;;-4.26;100.00
61037;BME280;72210;47.076;15.430;2024-01-30T04:51:30;99096.53;;;-4.28;100.00
61037;BME280;72210;47.076;15.430;2024-01-30T04:53:57;99102.38;;;-4.30;100.00
61037;BME280;72210;47.076;15.430;2024-01-30T04:56:24;99098.00;;;-4.36;100.00
61037;BME280;72210;47.076;15.430;2024-01-30T04:58:52;99097.97;;;-4.38;100.00
61037;BME280;72210;47.076;15.430;2024-01-30T05:01:22;99099.59;;;-4.40;100.00
61037;BME280;72210;47.076;15.430;2024-01-30T05:03:49;99097.84;;;-4.42;100.00
61037;BME280;72210;47.076;15.430;2024-01-30T05:06:24;99096.16;;;-4.42;100.00
61037;BME280;72210;47.076;15.430;2024-01-30T05:08:52;99099.50;;;-4.43;100.00
61037;BME280;72210;47.076;15.430;2024-01-30T05:11:19;99099.53;;;-4.41;100.00
61037;BME280;72210;47.076;15.430;2024-01-30T05:13:47;99101.16;;;-4.45;100.00
61037;BME280;72210;47.076;15.430;2024-01-30T05:16:14;99110.44;;;-4.47;100.00
61037;BME280;72210;47.076;15.430;2024-01-30T05:18:43;99107.88;;;-4.47;100.00
61037;BME280;72210;47.076;15.430;2024-01-30T05:21:11;99112.09;;;-4.47;100.00
61037;BME280;72210;47.076;15.430;2024-01-30T05:23:38;99107.09;;;-4.44;100.00
61037;BME280;72210;47.076;15.430;2024-01-30T05:26:07;99112.31;;;-4.40;100.00
61037;BME280;72210;47.076;15.430;2024-01-30T05:28:34;99116.50;;;-4.42;100.00
61037;BME280;72210;47.076;15.430;2024-01-30T05:31:01;99114.75;;;-4.43;100.00
61037;BME280;72210;47.076;15.430;2024-01-30T05:33:29;99112.13;;;-4.46;100.00
61037;BME280;72210;47.076;15.430;2024-01-30T05:35:58;99113.81;;;-4.46;100.00
61037;BME280;72210;47.076;15.430;2024-01-30T05:38:30;99112.00;;;-4.51;100.00
61037;BME280;72210;47.076;15.430;2024-01-30T05:40:57;99117.94;;;-4.52;100.00
61037;BME280;72210;47.076;15.430;2024-01-30T05:43:25;99113.59;;;-4.54;100.00
61037;BME280;72210;47.076;15.430;2024-01-30T05:45:53;99121.28;;;-4.53;100.00
61037;BME280;72210;47.076;15.430;2024-01-30T05:48:20;99123.94;;;-4.48;100.00
61037;BME280;72210;47.076;15.430;2024-01-30T05:50:47;99121.31;;;-4.51;100.00
61037;BME280;72210;47.076;15.430;2024-01-30T05:53:16;99111.09;;;-4.53;100.00
61037;BME280;72210;47.076;15.430;2024-01-30T05:55:43;99120.44;;;-4.53;100.00
61037;BME280;72210;47.076;15.430;2024-01-30T05:58:11;99114.50;;;-4.54;100.00
61037;BME280;72210;47.076;15.430;2024-01-30T06:00:38;99114.59;;;-4.49;100.00
61037;BME280;72210;47.076;15.430;2024-01-30T06:03:05;99114.69;;;-4.46;100.00
61037;BME280;72210;47.076;15.430;2024-01-30T06:05:33;99102.09;;;-4.41;100.00
61037;BME280;72210;47.076;15.430;2024-01-30T06:08:00;99110.78;;;-4.35;100.00
61037;BME280;72210;47.076;15.430;2024-01-30T06:10:29;99109.97;;;-4.32;100.00
61037;BME280;72210;47.076;15.430;2024-01-30T06:12:56;99105.69;;;-4.35;100.00
61037;BME280;72210;47.076;15.430;2024-01-30T06:15:23;99112.47;;;-4.34;100.00
61037;BME280;72210;47.076;15.430;2024-01-30T06:17:51;99111.59;;;-4.36;100.00
61037;BME280;72210;47.076;15.430;2024-01-30T06:20:18;99110.78;;;-4.35;100.00
61037;BME280;72210;47.076;15.430;2024-01-30T06:22:45;99110.06;;;-4.29;100.00
61037;BME280;72210;47.076;15.430;2024-01-30T06:25:13;99116.13;;;-4.25;100.00
61037;BME280;72210;47.076;15.430;2024-01-30T06:27:42;99111.84;;;-4.26;100.00
61037;BME280;72210;47.076;15.430;2024-01-30T06:30:10;99104.13;;;-4.29;100.00
61037;BME280;72210;47.076;15.430;2024-01-30T06:32:37;99108.34;;;-4.30;100.00
61037;BME280;72210;47.076;15.430;2024-01-30T06:35:05;99107.50;;;-4.29;100.00
61037;BME280;72210;47.076;15.430;2024-01-30T06:37:34;99094.75;;;-4.30;100.00
61037;BME280;72210;47.076;15.430;2024-01-30T06:40:02;99089.75;;;-4.27;100.00
61037;BME280;72210;47.076;15.430;2024-01-30T06:42:30;99098.31;;;-4.25;100.00
61037;BME280;72210;47.076;15.430;2024-01-30T06:44:59;99100.19;;;-4.18;100.00
61037;BME280;72210;47.076;15.430;2024-01-30T06:47:27;99104.72;;;-4.08;100.00
61037;BME280;72210;47.076;15.430;2024-01-30T06:49:54;99104.91;;;-4.00;100.00
61037;BME280;72210;47.076;15.430;2024-01-30T06:52:22;99102.56;;;-3.92;100.00
61037;BME280;72210;47.076;15.430;2024-01-30T06:54:49;99115.56;;;-3.82;100.00
61037;BME280;72210;47.076;15.430;2024-01-30T06:57:20;99109.75;;;-3.76;100.00
61037;BME280;72210;47.076;15.430;2024-01-30T06:59:47;99121.88;;;-3.67;100.00
61037;BME280;72210;47.076;15.430;2024-01-30T07:02:16;99112.66;;;-3.62;100.00
61037;BME280;72210;47.076;15.430;2024-01-30T07:04:43;99107.66;;;-3.57;100.00
61037;BME280;72210;47.076;15.430;2024-01-30T07:07:13;99117.97;;;-3.53;100.00
61037;BME280;72210;47.076;15.430;2024-01-30T07:09:43;99117.28;;;-3.47;100.00
61037;BME280;72210;47.076;15.430;2024-01-30T07:12:10;99117.44;;;-3.41;100.00
61037;BME280;72210;47.076;15.430;2024-01-30T07:14:38;99108.38;;;-3.28;100.00
61037;BME280;72210;47.076;15.430;2024-01-30T07:17:05;99106.78;;;-3.25;100.00
61037;BME280;72210;47.076;15.430;2024-01-30T07:19:34;99108.63;;;-3.17;100.00
61037;BME280;72210;47.076;15.430;2024-01-30T07:22:01;99109.72;;;-3.08;100.00
61037;BME280;72210;47.076;15.430;2024-01-30T07:24:29;99112.34;;;-3.04;100.00
61037;BME280;72210;47.076;15.430;2024-01-30T07:26:56;99118.41;;;-2.99;100.00
61037;BME280;72210;47.076;15.430;2024-01-30T07:29:24;99107.53;;;-2.91;100.00
61037;BME280;72210;47.076;15.430;2024-01-30T07:31:52;99115.34;;;-2.83;100.00
61037;BME280;72210;47.076;15.430;2024-01-30T07:34:19;99124.00;;;-2.76;100.00
61037;BME280;72210;47.076;15.430;2024-01-30T07:36:48;99119.09;;;-2.67;100.00
61037;BME280;72210;47.076;15.430;2024-01-30T07:39:15;99115.06;;;-2.57;100.00
61037;BME280;72210;47.076;15.430;2024-01-30T07:41:42;99121.19;;;-2.47;100.00
61037;BME280;72210;47.076;15.430;2024-01-30T07:44:09;99117.84;;;-2.45;100.00
61037;BME280;72210;47.076;15.430;2024-01-30T07:46:37;99118.84;;;-2.38;100.00
61037;BME280;72210;47.076;15.430;2024-01-30T07:49:04;99121.66;;;-2.24;100.00
61037;BME280;72210;47.076;15.430;2024-01-30T07:51:32;99117.66;;;-2.11;100.00
61037;BME280;72210;47.076;15.430;2024-01-30T07:54:01;99115.34;;;-1.99;100.00
61037;BME280;72210;47.076;15.430;2024-01-30T07:56:28;99112.97;;;-1.88;100.00
61037;BME280;72210;47.076;15.430;2024-01-30T07:58:55;99114.84;;;-1.79;100.00
61037;BME280;72210;47.076;15.430;2024-01-30T08:01:23;99113.31;;;-1.70;100.00
61037;BME280;72210;47.076;15.430;2024-01-30T08:03:50;99110.94;;;-1.59;100.00
61037;BME280;72210;47.076;15.430;2024-01-30T08:06:17;99117.84;;;-1.53;100.00
61037;BME280;72210;47.076;15.430;2024-01-30T08:08:45;99116.31;;;-1.43;100.00
61037;BME280;72210;47.076;15.430;2024-01-30T08:11:14;99124.13;;;-1.34;100.00
61037;BME280;72210;47.076;15.430;2024-01-30T08:13:41;99118.31;;;-1.25;100.00
61037;BME280;72210;47.076;15.430;2024-01-30T08:16:08;99126.06;;;-1.21;100.00
61037;BME280;72210;47.076;15.430;2024-01-30T08:18:40;99126.97;;;-1.16;100.00
61037;BME280;72210;47.076;15.430;2024-01-30T08:21:07;99127.09;;;-1.08;100.00
61037;BME280;72210;47.076;15.430;2024-01-30T08:23:35;99127.19;;;-1.02;100.00
61037;BME280;72210;47.076;15.430;2024-01-30T08:26:03;99128.16;;;-0.94;100.00
61037;BME280;72210;47.076;15.430;2024-01-30T08:28:32;99133.47;;;-0.80;100.00
61037;BME280;72210;47.076;15.430;2024-01-30T08:31:00;99124.19;;;-0.72;100.00
61037;BME280;72210;47.076;15.430;2024-01-30T08:33:27;99120.94;;;-0.60;100.00
61037;BME280;72210;47.076;15.430;2024-01-30T08:35:55;99126.16;;;-0.52;100.00
61037;BME280;72210;47.076;15.430;2024-01-30T08:38:24;99118.63;;;-0.41;100.00
61037;BME280;72210;47.076;15.430;2024-01-30T08:40:53;99115.81;;;0.12;100.00
61037;BME280;72210;47.076;15.430;2024-01-30T08:43:21;99115.44;;;2.72;100.00
61037;BME280;72210;47.076;15.430;2024-01-30T08:45:51;99108.91;;;5.33;79.10
61037;BME280;72210;47.076;15.430;2024-01-30T08:48:18;99108.84;;;7.21;59.07
61037;BME280;72210;47.076;15.430;2024-01-30T08:50:45;99094.00;;;8.90;51.41
61037;BME280;72210;47.076;15.430;2024-01-30T08:53:13;99089.69;;;10.15;46.84
61037;BME280;72210;47.076;15.430;2024-01-30T08:55:42;99096.53;;;11.26;43.20
61037;BME280;72210;47.076;15.430;2024-01-30T08:58:10;99092.84;;;12.28;40.36
61037;BME280;72210;47.076;15.430;2024-01-30T09:00:37;99084.13;;;13.35;37.82
61037;BME280;72210;47.076;15.430;2024-01-30T09:03:06;99092.16;;;14.27;35.74
61037;BME280;72210;47.076;15.430;2024-01-30T09:05:33;99079.81;;;15.02;34.41
61037;BME280;72210;47.076;15.430;2024-01-30T09:08:01;99085.44;;;15.62;32.11
61037;BME280;72210;47.076;15.430;2024-01-30T09:10:29;99083.31;;;16.50;31.91
61037;BME280;72210;47.076;15.430;2024-01-30T09:12:57;99079.16;;;17.23;29.75
61037;BME280;72210;47.076;15.430;2024-01-30T09:15:24;99079.44;;;17.47;28.84
61037;BME280;72210;47.076;15.430;2024-01-30T09:17:52;99074.47;;;17.71;28.86
61037;BME280;72210;47.076;15.430;2024-01-30T09:20:22;99073.88;;;18.09;27.57
61037;BME280;72210;47.076;15.430;2024-01-30T09:22:50;99087.88;;;18.52;26.93
61037;BME280;72210;47.076;15.430;2024-01-30T09:25:18;99073.69;;;19.07;26.67
61037;BME280;72210;47.076;15.430;2024-01-30T09:27:45;99080.66;;;19.72;25.41
61037;BME280;72210;47.076;15.430;2024-01-30T09:30:13;99076.63;;;20.05;24.73
61037;BME280;72210;47.076;15.430;2024-01-30T09:32:42;99077.66;;;20.40;24.26
61037;BME280;72210;47.076;15.430;2024-01-30T09:35:10;99071.66;;;20.62;24.41
61037;BME280;72210;47.076;15.430;2024-01-30T09:37:39;99065.22;;;21.13;23.80
61037;BME280;72210;47.076;15.430;2024-01-30T09:40:08;99071.97;;;21.17;23.34
61037;BME280;72210;47.076;15.430;2024-01-30T09:42:36;99070.78;;;21.32;23.36
61037;BME280;72210;47.076;15.430;2024-01-30T09:45:05;99066.16;;;21.59;22.77
61037;BME280;72210;47.076;15.430;2024-01-30T09:47:37;99063.44;;;22.15;22.36
61037;BME280;72210;47.076;15.430;2024-01-30T09:50:08;99069.31;;;22.41;21.84
61037;BME280;72210;47.076;15.430;2024-01-30T09:52:36;99069.84;;;22.68;21.54
61037;BME280;72210;47.076;15.430;2024-01-30T09:55:06;99059.50;;;22.86;21.53
61037;BME280;72210;47.076;15.430;2024-01-30T09:57:34;99060.13;;;22.99;21.33
61037;BME280;72210;47.076;15.430;2024-01-30T10:00:02;99064.31;;;23.13;21.08
61037;BME280;72210;47.076;15.430;2024-01-30T10:02:30;99050.28;;;22.69;21.28
61037;BME280;72210;47.076;15.430;2024-01-30T10:04:59;99065.47;;;22.46;21.68
61037;BME280;72210;47.076;15.430;2024-01-30T10:07:27;99054.22;;;22.53;21.55
61037;BME280;72210;47.076;15.430;2024-01-30T10:09:55;99054.63;;;22.91;21.26
61037;BME280;72210;47.076;15.430;2024-01-30T10:12:26;99055.03;;;22.86;21.23
61037;BME280;72210;47.076;15.430;2024-01-30T10:14:53;99048.75;;;23.08;21.21
61037;BME280;72210;47.076;15.430;2024-01-30T10:17:24;99045.00;;;23.32;20.81
61037;BME280;72210;47.076;15.430;2024-01-30T10:19:59;99047.56;;;23.43;20.43
61037;BME280;72210;47.076;15.430;2024-01-30T10:22:28;99045.44;;;23.37;20.56
61037;BME280;72210;47.076;15.430;2024-01-30T10:24:56;99041.41;;;23.12;20.71
61037;BME280;72210;47.076;15.430;2024-01-30T10:27:26;99038.06;;;22.45;21.14
61037;BME280;72210;47.076;15.430;2024-01-30T10:29:53;99042.69;;;22.64;21.00
61037;BME280;72210;47.076;15.430;2024-01-30T10:32:21;99035.69;;;22.63;21.14
61037;BME280;72210;47.076;15.430;2024-01-30T10:34:49;99029.75;;;22.71;21.23
61037;BME280;72210;47.076;15.430;2024-01-30T10:37:17;99031.41;;;23.35;21.02
61037;BME280;72210;47.076;15.430;2024-01-30T10:39:48;99017.41;;;23.64;20.56
61037;BME280;72210;47.076;15.430;2024-01-30T10:42:18;99016.31;;;24.07;20.20
61037;BME280;72210;47.076;15.430;2024-01-30T10:44:57;99020.44;;;24.70;19.90
61037;BME280;72210;47.076;15.430;2024-01-30T10:47:28;99010.34;;;24.64;19.46
61037;BME280;72210;47.076;15.430;2024-01-30T10:49:56;99004.28;;;24.42;20.19
61037;BME280;72210;47.076;15.430;2024-01-30T10:52:29;99006.53;;;24.27;20.27
61037;BME280;72210;47.076;15.430;2024-01-30T10:54:56;99009.50;;;24.83;19.68
61037;BME280;72210;47.076;15.430;2024-01-30T10:57:25;99006.25;;;24.79;19.32
61037;BME280;72210;47.076;15.430;2024-01-30T10:59:57;98996.44;;;24.89;19.41
61037;BME280;72210;47.076;15.430;2024-01-30T11:02:25;98986.34;;;24.54;19.34
61037;BME280;72210;47.076;15.430;2024-01-30T11:04:58;98994.63;;;24.61;19.68
61037;BME280;72210;47.076;15.430;2024-01-30T11:07:27;98984.47;;;24.94;19.66
61037;BME280;72210;47.076;15.430;2024-01-30T11:10:00;98973.63;;;25.15;19.54
61037;BME280;72210;47.076;15.430;2024-01-30T11:12:29;98976.41;;;25.60;19.03
61037;BME280;72210;47.076;15.430;2024-01-30T11:15:07;98971.19;;;25.41;18.61
61037;BME280;72210;47.076;15.430;2024-01-30T11:17:45;98976.41;;;25.60;18.82
61037;BME280;72210;47.076;15.430;2024-01-30T11:20:20;98973.09;;;25.76;18.78
61037;BME280;72210;47.076;15.430;2024-01-30T11:22:49;98970.44;;;25.76;19.06
61037;BME280;72210;47.076;15.430;2024-01-30T11:25:19;98978.69;;;25.55;19.17
61037;BME280;72210;47.076;15.430;2024-01-30T11:27:49;98971.72;;;25.72;18.88
61037;BME280;72210;47.076;15.430;2024-01-30T11:30:26;98964.84;;;25.70;18.79
61037;BME280;72210;47.076;15.430;2024-01-30T11:33:01;98962.50;;;26.12;18.35
61037;BME280;72210;47.076;15.430;2024-01-30T11:35:31;98946.41;;;26.40;18.64
61037;BME280;72210;47.076;15.430;2024-01-30T11:37:59;98954.75;;;26.63;18.43
61037;BME280;72210;47.076;15.430;2024-01-30T11:40:28;98949.84;;;27.03;17.92
61037;BME280;72210;47.076;15.430;2024-01-30T11:42:56;98947.56;;;27.08;17.71
61037;BME280;72210;47.076;15.430;2024-01-30T11:45:25;98951.44;;;26.43;18.22
61037;BME280;72210;47.076;15.430;2024-01-30T11:47:54;98952.19;;;26.18;18.56
61037;BME280;72210;47.076;15.430;2024-01-30T11:50:22;98947.66;;;26.54;17.81
61037;BME280;72210;47.076;15.430;2024-01-30T11:52:49;98941.16;;;26.30;18.04
61037;BME280;72210;47.076;15.430;2024-01-30T11:55:17;98935.00;;;26.38;18.24
61037;BME280;72210;47.076;15.430;2024-01-30T11:57:46;98933.38;;;25.91;17.90
61037;BME280;72210;47.076;15.430;2024-01-30T12:00:15;98939.19;;;25.87;18.10
61037;BME280;72210;47.076;15.430;2024-01-30T12:02:49;98942.28;;;25.82;18.05
61037;BME280;72210;47.076;15.430;2024-01-30T12:05:18;98939.41;;;25.75;17.84
61037;BME280;72210;47.076;15.430;2024-01-30T12:07:47;98934.34;;;26.36;17.98
61037;BME280;72210;47.076;15.430;2024-01-30T12:10:15;98931.94;;;26.69;17.74
61037;BME280;72210;47.076;15.430;2024-01-30T12:12:43;98923.56;;;26.90;17.49
61037;BME280;72210;47.076;15.430;2024-01-30T12:15:12;98922.72;;;26.90;17.48
61037;BME280;72210;47.076;15.430;2024-01-30T12:17:40;98912.19;;;26.88;17.43
61037;BME280;72210;47.076;15.430;2024-01-30T12:20:15;98911.34;;;26.87;17.29
61037;BME280;72210;47.076;15.430;2024-01-30T12:22:47;98908.38;;;26.46;17.70
61037;BME280;72210;47.076;15.430;2024-01-30T12:25:16;98906.84;;;23.11;19.91
61037;BME280;72210;47.076;15.430;2024-01-30T12:27:45;98908.97;;;20.55;21.97
61037;BME280;72210;47.076;15.430;2024-01-30T12:30:13;98907.56;;;18.12;24.53
61037;BME280;72210;47.076;15.430;2024-01-30T12:32:41;98908.94;;;16.34;26.37
61037;BME280;72210;47.076;15.430;2024-01-30T12:35:12;98910.06;;;14.86;28.17
61037;BME280;72210;47.076;15.430;2024-01-30T12:37:41;98906.56;;;13.63;30.64
61037;BME280;72210;47.076;15.430;2024-01-30T12:40:11;98900.56;;;12.65;31.67
61037;BME280;72210;47.076;15.430;2024-01-30T12:42:38;98905.13;;;11.74;33.93
61037;BME280;72210;47.076;15.430;2024-01-30T12:45:07;98898.78;;;11.13;34.23
61037;BME280;72210;47.076;15.430;2024-01-30T12:47:34;98896.09;;;10.68;35.69
61037;BME280;72210;47.076;15.430;2024-01-30T12:50:02;98899.78;;;10.37;37.04
61037;BME280;72210;47.076;15.430;2024-01-30T12:52:32;98891.31;;;10.03;37.38